Time;durP1;ratioP1;P1;durP2;ratioP2;P2;SDS_P1;SDS_P2;PMS_P1;PMS_P2;Temp;Humidity;BMP_temperature;BMP_pressure;BME280_temperature;BME280_humidity;BME280_pressure;Samples;Min_cycle;Max_cycle;Signal;HPM_P1;HPM_P2
2022/07/07 00:00:00;;;;;;;490.17;444.57;;;;;;;23.01;66.14;99378.00;344253;28;1068;-74
2022/07/07 00:00:12;;;;;;;487.15;441.45;;;;;;;23.03;66.61;99381.34;344901;28;1196;-74
2022/07/07 00:00:22;;;;;;;487.90;442.15;;;;;;;23.02;66.41;99379.69;342354;28;1322;-74
2022/07/07 00:00:33;;;;;;;486.23;440.52;;;;;;;23.02;66.59;99379.69;342465;28;1448;-74
2022/07/07 00:00:43;;;;;;;491.17;445.60;;;;;;;23.00;66.43;99382.50;342382;28;1296;-74
2022/07/07 00:00:53;;;;;;;491.55;446.02;;;;;;;22.99;66.59;99385.31;342420;28;1005;-74
2022/07/07 00:01:04;;;;;;;486.27;440.87;;;;;;;23.00;66.26;99378.97;339745;28;1200;-74
2022/07/07 00:01:14;;;;;;;486.90;441.45;;;;;;;23.02;66.69;99390.34;341111;29;932;-74
2022/07/07 00:01:26;;;;;;;486.53;440.83;;;;;;;22.97;66.28;99372.13;343680;28;1270;-74
2022/07/07 00:01:36;;;;;;;495.02;449.13;;;;;;;22.93;66.47;99375.25;342300;28;1443;-74
2022/07/07 00:01:47;;;;;;;492.47;446.67;;;;;;;22.91;66.12;99380.72;341712;28;1949;-74
2022/07/07 00:01:57;;;;;;;493.77;448.13;;;;;;;22.90;66.17;99376.38;342252;28;1395;-74
2022/07/07 00:02:07;;;;;;;493.73;448.08;;;;;;;22.89;66.09;99377.38;343803;28;814;-74
2022/07/07 00:02:18;;;;;;;500.03;454.27;;;;;;;22.89;65.80;99383.56;342201;28;1700;-74
2022/07/07 00:02:28;;;;;;;504.80;458.88;;;;;;;22.91;66.39;99378.06;343815;28;1000;-74
2022/07/07 00:02:39;;;;;;;507.23;461.23;;;;;;;22.92;65.88;99378.91;341007;29;1181;-74
2022/07/07 00:02:49;;;;;;;508.25;462.25;;;;;;;22.95;66.08;99381.28;343709;28;852;-74
2022/07/07 00:03:00;;;;;;;505.20;459.33;;;;;;;22.96;66.02;99380.28;342464;28;823;-74
2022/07/07 00:03:10;;;;;;;504.63;458.75;;;;;;;22.97;65.78;99373.94;346244;28;1187;-74
2022/07/07 00:03:20;;;;;;;505.53;459.63;;;;;;;22.99;66.16;99385.31;346515;28;823;-74
2022/07/07 00:03:31;;;;;;;501.43;455.67;;;;;;;23.01;65.72;99383.34;343889;28;1902;-74
2022/07/07 00:03:41;;;;;;;497.50;451.75;;;;;;;23.01;65.71;99378.84;343748;28;2569;-74
2022/07/07 00:03:52;;;;;;;496.67;450.90;;;;;;;23.01;65.78;99380.66;343298;28;2001;-75
2022/07/07 00:04:03;;;;;;;497.98;452.13;;;;;;;23.04;65.75;99385.72;342321;28;1778;-75
2022/07/07 00:04:14;;;;;;;494.63;448.97;;;;;;;23.02;65.79;99377.84;342449;28;1184;-75
2022/07/07 00:04:24;;;;;;;493.13;447.60;;;;;;;23.03;65.75;99384.03;346485;28;1452;-75
2022/07/07 00:04:34;;;;;;;488.13;442.73;;;;;;;23.02;65.42;99380.53;344977;28;1978;-75
2022/07/07 00:04:45;;;;;;;486.08;440.60;;;;;;;23.01;65.88;99383.34;343230;28;1606;-74
2022/07/07 00:04:55;;;;;;;487.83;442.07;;;;;;;23.00;65.46;99378.97;343571;28;1141;-74
2022/07/07 00:05:06;;;;;;;493.85;447.95;;;;;;;22.99;65.48;99378.16;343711;28;880;-74
2022/07/07 00:05:16;;;;;;;496.30;450.43;;;;;;;22.98;65.60;99384.47;345078;28;892;-74
2022/07/07 00:05:27;;;;;;;492.75;447.15;;;;;;;22.99;65.74;99385.31;345161;28;778;-74
2022/07/07 00:05:38;;;;;;;497.30;451.60;;;;;;;23.00;65.35;99382.50;342298;28;1738;-74
2022/07/07 00:05:48;;;;;;;495.83;450.15;;;;;;;22.99;65.72;99380.81;342411;28;971;-74
2022/07/07 00:05:59;;;;;;;495.40;449.58;;;;;;;22.96;65.55;99385.63;343749;28;941;-74
2022/07/07 00:06:09;;;;;;;492.13;446.47;;;;;;;22.93;65.78;99380.59;345100;28;1306;-74
2022/07/07 00:06:20;;;;;;;490.92;445.48;;;;;;;22.93;65.58;99383.25;343799;28;1384;-74
2022/07/07 00:06:30;;;;;;;489.07;443.90;;;;;;;22.89;65.71;99380.03;343641;28;1557;-75
2022/07/07 00:06:41;;;;;;;492.00;446.65;;;;;;;22.90;65.27;99379.06;343447;28;1221;-75
2022/07/07 00:06:51;;;;;;;492.90;447.40;;;;;;;22.91;65.50;99382.56;342332;28;984;-75
2022/07/07 00:07:02;;;;;;;497.65;451.95;;;;;;;22.92;65.78;99381.56;341625;28;1306;-75
2022/07/07 00:07:12;;;;;;;504.30;458.30;;;;;;;22.90;65.33;99379.06;343710;28;1480;-75
2022/07/07 00:07:23;;;;;;;504.27;458.40;;;;;;;22.91;65.43;99372.72;344784;28;3771;-75
2022/07/07 00:07:33;;;;;;;508.87;462.90;;;;;;;22.92;65.75;99373.56;342054;28;4794;-75
2022/07/07 00:07:43;;;;;;;505.00;459.20;;;;;;;22.96;65.32;99380.28;342344;28;1934;-75
2022/07/07 00:07:54;;;;;;;503.57;457.43;;;;;;;22.97;65.08;99381.94;343596;28;1712;-75
2022/07/07 00:08:04;;;;;;;499.45;453.45;;;;;;;22.95;64.95;99378.63;344294;28;3213;-73
2022/07/07 00:08:15;;;;;;;499.30;453.47;;;;;;;22.94;64.76;99379.59;344097;28;845;-74
2022/07/07 00:08:25;;;;;;;499.63;454.00;;;;;;;22.93;65.03;99383.25;343716;28;1192;-74
2022/07/07 00:08:36;;;;;;;498.60;452.70;;;;;;;22.93;64.58;99373.41;345142;28;942;-74
2022/07/07 00:08:47;;;;;;;496.53;450.63;;;;;;;22.96;65.01;99374.97;343720;28;931;-74
2022/07/07 00:08:57;;;;;;;495.10;449.20;;;;;;;22.95;64.76;99374.13;343691;28;1285;-74
2022/07/07 00:09:08;;;;;;;494.43;448.93;;;;;;;22.96;64.82;99380.28;340959;29;1928;-75
2022/07/07 00:09:18;;;;;;;498.20;452.48;;;;;;;22.97;64.79;99376.59;342369;28;1342;-75
2022/07/07 00:09:30;;;;;;;502.67;456.77;;;;;;;22.97;64.62;99381.94;342423;28;1321;-75
2022/07/07 00:09:40;;;;;;;499.52;453.58;;;;;;;22.97;64.73;99376.59;341032;29;1541;-75
2022/07/07 00:09:51;;;;;;;497.53;451.67;;;;;;;23.00;64.68;99378.97;341089;29;841;-74
2022/07/07 00:10:01;;;;;;;497.23;451.33;;;;;;;22.99;64.59;99379.97;342435;28;1650;-74
2022/07/07 00:10:12;;;;;;;502.27;456.23;;;;;;;23.01;64.78;99372.66;343750;28;893;-74
2022/07/07 00:10:22;;;;;;;493.02;447.27;;;;;;;23.00;64.63;99378.97;341171;29;941;-74
2022/07/07 00:10:32;;;;;;;490.67;444.97;;;;;;;22.99;64.93;99372.81;341015;28;1235;-74
2022/07/07 00:10:43;;;;;;;486.58;440.90;;;;;;;22.99;64.38;99378.16;342580;28;1804;-74
2022/07/07 00:10:53;;;;;;;493.77;448.00;;;;;;;22.96;64.79;99373.09;343725;28;1353;-76
2022/07/07 00:11:04;;;;;;;496.33;450.58;;;;;;;22.88;64.46;99378.34;345071;28;1369;-75
2022/07/07 00:11:15;;;;;;;499.77;454.03;;;;;;;22.85;64.76;99375.97;342477;28;944;-75
2022/07/07 00:11:26;;;;;;;501.20;455.42;;;;;;;22.84;64.69;99377.81;343659;28;1279;-75
2022/07/07 00:11:36;;;;;;;502.48;456.67;;;;;;;22.85;64.58;99379.50;346535;28;898;-75
2022/07/07 00:11:47;;;;;;;502.60;456.73;;;;;;;22.86;64.44;99373.16;343594;28;2203;-75
2022/07/07 00:11:58;;;;;;;495.00;449.30;;;;;;;22.88;64.65;99378.34;343754;28;853;-75
2022/07/07 00:12:08;;;;;;;490.95;445.30;;;;;;;22.88;64.74;99373.88;341102;29;854;-75
2022/07/07 00:12:19;;;;;;;490.70;444.87;;;;;;;22.87;64.59;99371.34;343094;28;2318;-75
2022/07/07 00:12:29;;;;;;;489.73;443.73;;;;;;;22.86;64.65;99380.34;342317;28;1617;-75
2022/07/07 00:12:39;;;;;;;495.53;449.57;;;;;;;22.84;64.95;99366.28;342384;28;1204;-75
2022/07/07 00:12:50;;;;;;;497.83;451.98;;;;;;;22.82;64.82;99373.59;342447;28;950;-75
2022/07/07 00:13:01;;;;;;;501.87;455.97;;;;;;;22.80;64.91;99371.06;345125;28;1298;-75
2022/07/07 00:13:12;;;;;;;510.48;464.38;;;;;;;22.82;64.79;99377.09;345064;28;1249;-75
2022/07/07 00:13:22;;;;;;;510.23;464.10;;;;;;;22.80;64.71;99363.06;345105;28;1177;-75
2022/07/07 00:13:32;;;;;;;516.50;470.30;;;;;;;22.79;64.47;99364.06;346589;28;991;-75
2022/07/07 00:13:43;;;;;;;511.83;465.73;;;;;;;22.77;64.40;99366.00;342417;28;943;-76
2022/07/07 00:13:54;;;;;;;505.47;459.63;;;;;;;22.79;64.87;99374.72;343183;28;1756;-75
2022/07/07 00:14:07;;;;;;;505.63;459.80;;;;;;;22.77;64.43;99366.00;343026;28;1507;-75
2022/07/07 00:14:17;;;;;;;513.92;468.00;;;;;;;22.72;64.54;99365.59;341115;29;888;-75
2022/07/07 00:14:28;;;;;;;520.05;474.05;;;;;;;22.69;64.59;99368.56;341258;29;885;-75
2022/07/07 00:14:38;;;;;;;519.13;473.13;;;;;;;22.65;64.72;99369.00;343872;28;868;-75
2022/07/07 00:14:48;;;;;;;521.95;475.83;;;;;;;22.64;64.83;99365.47;342450;28;1317;-75
2022/07/07 00:14:59;;;;;;;528.47;482.07;;;;;;;22.66;64.87;99368.84;341102;29;1229;-75
2022/07/07 00:15:10;;;;;;;526.50;480.15;;;;;;;22.69;64.45;99368.56;342494;28;1354;-75
2022/07/07 00:15:20;;;;;;;527.97;481.57;;;;;;;22.74;64.29;99366.28;341129;29;992;-75
2022/07/07 00:15:30;;;;;;;528.17;481.83;;;;;;;22.76;64.06;99372.31;342829;28;1485;-75
2022/07/07 00:15:45;;;;;;;533.10;486.53;;;;;;;22.78;64.52;99366.84;342928;28;1504;-75
2022/07/07 00:15:55;;;;;;;531.78;485.25;;;;;;;22.79;64.08;99365.88;343825;28;1330;-75
2022/07/07 00:16:05;;;;;;;527.63;481.15;;;;;;;22.74;64.14;99368.97;345068;28;1271;-75
2022/07/07 00:16:16;;;;;;;523.47;477.03;;;;;;;22.71;64.14;99365.75;345236;28;801;-75
2022/07/07 00:16:26;;;;;;;525.22;478.55;;;;;;;22.71;64.00;99369.25;343823;28;844;-75
2022/07/07 00:16:37;;;;;;;527.27;480.57;;;;;;;22.71;64.00;99371.91;342831;28;4422;-74
2022/07/07 00:16:48;;;;;;;532.60;485.90;;;;;;;22.72;63.96;99362.94;345245;28;5257;-74
2022/07/07 00:16:58;;;;;;;530.47;483.73;;;;;;;22.76;64.03;99368.81;345192;28;845;-74
2022/07/07 00:17:09;;;;;;;533.90;487.13;;;;;;;22.76;64.46;99374.16;343598;28;1813;-75
2022/07/07 00:17:20;;;;;;;532.53;485.75;;;;;;;22.74;63.97;99360.97;341993;28;2986;-75
2022/07/07 00:17:30;;;;;;;531.00;484.50;;;;;;;22.74;64.43;99366.28;343768;28;1318;-75
2022/07/07 00:17:40;;;;;;;536.50;489.90;;;;;;;22.75;64.48;99362.63;343800;28;919;-76
2022/07/07 00:17:51;;;;;;;538.30;491.73;;;;;;;22.75;63.96;99365.31;345109;28;1455;-75
2022/07/07 00:18:01;;;;;;;536.77;490.27;;;;;;;22.79;64.09;99374.72;345112;28;1160;-75
2022/07/07 00:18:12;;;;;;;528.73;482.43;;;;;;;22.77;64.20;99376.69;345197;28;808;-75
2022/07/07 00:18:23;;;;;;;528.15;481.83;;;;;;;22.77;64.38;99359.81;345139;28;1067;-75
2022/07/07 00:18:34;;;;;;;520.63;474.52;;;;;;;22.75;63.95;99370.63;343749;28;1207;-75
2022/07/07 00:18:44;;;;;;;521.55;475.35;;;;;;;22.74;64.04;99366.28;345080;28;1404;-75
2022/07/07 00:18:55;;;;;;;522.17;476.02;;;;;;;22.76;63.83;99368.81;345529;28;971;-75
2022/07/07 00:19:05;;;;;;;531.57;485.00;;;;;;;22.75;63.95;99365.31;342474;28;1133;-75
2022/07/07 00:19:16;;;;;;;528.17;481.77;;;;;;;22.76;64.07;99369.66;342396;28;1982;-75
2022/07/07 00:19:26;;;;;;;532.67;486.13;;;;;;;22.78;63.96;99367.72;343665;28;2153;-75
2022/07/07 00:19:37;;;;;;;530.60;484.17;;;;;;;22.79;63.66;99368.56;343925;28;873;-75
2022/07/07 00:19:47;;;;;;;534.05;487.50;;;;;;;22.78;64.01;99359.72;341046;28;1224;-75
2022/07/07 00:19:58;;;;;;;530.17;483.60;;;;;;;22.81;63.80;99367.41;340966;29;1459;-75
2022/07/07 00:20:08;;;;;;;526.40;479.90;;;;;;;22.81;64.19;99364.75;341173;29;813;-75
2022/07/07 00:20:19;;;;;;;523.25;476.85;;;;;;;22.80;64.06;99368.41;342454;28;1157;-75
2022/07/07 00:20:29;;;;;;;520.83;474.37;;;;;;;22.79;64.40;99364.06;341105;29;1239;-75
2022/07/07 00:20:40;;;;;;;518.00;471.73;;;;;;;22.79;64.29;99369.41;341103;28;1567;-75
2022/07/07 00:20:50;;;;;;;518.17;471.93;;;;;;;22.81;64.29;99370.09;343847;28;817;-75
2022/07/07 00:21:00;;;;;;;524.20;478.00;;;;;;;22.78;64.33;99364.16;343702;28;1184;-75
2022/07/07 00:21:11;;;;;;;525.80;479.58;;;;;;;22.78;64.17;99369.50;341058;28;1242;-75
2022/07/07 00:21:21;;;;;;;527.67;481.27;;;;;;;22.81;64.48;99367.41;342447;28;1305;-75
2022/07/07 00:21:32;;;;;;;527.10;480.70;;;;;;;22.82;64.38;99370.94;343793;28;936;-75
2022/07/07 00:21:42;;;;;;;526.40;480.00;;;;;;;22.81;64.03;99362.09;344735;28;1601;-75
2022/07/07 00:21:53;;;;;;;520.45;474.20;;;;;;;22.81;64.44;99362.09;344325;28;891;-75
2022/07/07 00:22:03;;;;;;;518.30;472.03;;;;;;;22.84;64.38;99358.28;344661;28;874;-75
2022/07/07 00:22:13;;;;;;;514.03;467.95;;;;;;;22.85;63.95;99363.47;343814;28;1105;-75
2022/07/07 00:22:25;;;;;;;514.10;468.07;;;;;;;22.87;63.95;99369.50;343785;28;2007;-75
2022/07/07 00:22:35;;;;;;;513.67;467.60;;;;;;;22.88;64.15;99368.53;342351;28;1339;-75
2022/07/07 00:22:46;;;;;;;515.30;469.13;;;;;;;22.88;63.97;99368.53;345117;28;1012;-75
2022/07/07 00:22:56;;;;;;;513.93;467.83;;;;;;;22.87;64.23;99366.84;343782;28;1227;-75
2022/07/07 00:23:06;;;;;;;512.67;466.65;;;;;;;22.88;63.99;99368.53;343741;28;896;-75
2022/07/07 00:23:17;;;;;;;511.27;465.37;;;;;;;22.88;63.98;99373.88;343616;28;1560;-75
2022/07/07 00:23:27;;;;;;;508.92;463.02;;;;;;;22.89;64.35;99367.53;343833;28;931;-75
2022/07/07 00:23:38;;;;;;;503.80;458.00;;;;;;;22.92;63.92;99373.56;343754;28;1579;-75
2022/07/07 00:23:48;;;;;;;501.52;455.80;;;;;;;22.94;64.28;99371.59;345098;28;1367;-75
2022/07/07 00:23:59;;;;;;;503.67;457.83;;;;;;;22.94;64.14;99372.44;341022;28;1590;-75
2022/07/07 00:24:09;;;;;;;511.40;465.33;;;;;;;22.94;63.40;99371.59;342419;28;1228;-75
2022/07/07 00:24:19;;;;;;;514.53;468.23;;;;;;;22.93;63.71;99370.75;345111;28;1577;-75
2022/07/07 00:24:30;;;;;;;508.83;462.63;;;;;;;22.89;63.29;99372.88;345222;28;1007;-75
2022/07/07 00:24:40;;;;;;;507.10;461.10;;;;;;;22.87;63.34;99372.19;345137;28;970;-75
2022/07/07 00:24:51;;;;;;;505.23;459.30;;;;;;;22.85;63.32;99366.16;343733;28;985;-75
2022/07/07 00:25:01;;;;;;;517.35;471.20;;;;;;;22.87;64.28;99368.66;345136;28;1234;-75
2022/07/07 00:25:12;;;;;;;520.33;474.10;;;;;;;22.88;64.11;99370.34;345148;28;972;-75
2022/07/07 00:25:22;;;;;;;522.05;475.75;;;;;;;22.86;63.77;99373.16;342476;28;825;-75
2022/07/07 00:25:32;;;;;;;512.17;466.10;;;;;;;22.87;63.72;99374.84;341051;28;1178;-75
2022/07/07 00:25:43;;;;;;;513.33;467.17;;;;;;;22.87;63.73;99366.84;343038;28;2532;-75
2022/07/07 00:25:53;;;;;;;507.90;461.80;;;;;;;22.88;63.89;99373.03;339889;28;4211;-75
2022/07/07 00:26:04;;;;;;;513.30;467.13;;;;;;;22.88;63.87;99371.19;343303;28;3029;-75
2022/07/07 00:26:14;;;;;;;510.73;464.15;;;;;;;22.87;63.58;99366.84;343243;28;2798;-75
2022/07/07 00:26:24;;;;;;;508.27;461.83;;;;;;;22.88;63.81;99373.88;342597;28;2932;-74
2022/07/07 00:26:35;;;;;;;502.50;456.00;;;;;;;22.86;63.58;99367.81;343234;28;1848;-74
2022/07/07 00:26:45;;;;;;;499.63;453.20;;;;;;;22.82;63.27;99369.09;342209;28;1895;-74
2022/07/07 00:26:56;;;;;;;503.55;457.05;;;;;;;22.79;63.86;99371.22;342052;28;1347;-74
2022/07/07 00:27:06;;;;;;;504.33;458.10;;;;;;;22.78;63.57;99369.50;342541;28;982;-74
2022/07/07 00:27:17;;;;;;;509.00;462.83;;;;;;;22.76;63.80;99367.00;343719;28;1400;-74
2022/07/07 00:27:27;;;;;;;513.33;467.03;;;;;;;22.76;63.66;99368.81;340940;29;1453;-74
2022/07/07 00:27:37;;;;;;;514.60;468.27;;;;;;;22.77;63.68;99370.50;342321;28;1286;-74
2022/07/07 00:27:48;;;;;;;511.83;465.52;;;;;;;22.78;63.81;99367.72;341034;28;1393;-74
2022/07/07 00:27:58;;;;;;;513.70;467.50;;;;;;;22.78;64.05;99367.72;341166;29;1185;-74
2022/07/07 00:28:09;;;;;;;511.95;465.80;;;;;;;22.77;63.71;99366.00;340996;29;1940;-74
2022/07/07 00:28:19;;;;;;;514.90;468.77;;;;;;;22.77;63.49;99366.00;342447;28;853;-74
2022/07/07 00:28:30;;;;;;;505.52;459.67;;;;;;;22.78;63.65;99362.38;343706;28;1389;-74
2022/07/07 00:28:40;;;;;;;510.80;464.77;;;;;;;22.81;63.55;99371.91;343828;28;988;-74
2022/07/07 00:28:50;;;;;;;506.83;460.87;;;;;;;22.82;64.00;99371.78;343718;28;1306;-74
2022/07/07 00:29:01;;;;;;;514.92;468.77;;;;;;;22.81;63.73;99355.91;342386;28;1393;-74
2022/07/07 00:29:11;;;;;;;522.07;475.77;;;;;;;22.82;63.53;99370.94;342356;28;1449;-74
2022/07/07 00:29:22;;;;;;;526.60;480.27;;;;;;;22.83;63.58;99367.28;342406;28;1192;-74
2022/07/07 00:29:32;;;;;;;521.23;474.87;;;;;;;22.83;63.48;99362.78;343890;28;1014;-74
2022/07/07 00:29:43;;;;;;;515.55;469.30;;;;;;;22.86;63.13;99364.31;343663;28;1296;-74
2022/07/07 00:29:54;;;;;;;518.78;472.35;;;;;;;22.87;62.91;99366.84;342309;28;1317;-74
2022/07/07 00:30:05;;;;;;;519.38;473.15;;;;;;;22.89;63.32;99367.53;343793;28;1342;-74
2022/07/07 00:30:16;;;;;;;518.28;472.05;;;;;;;22.89;62.80;99370.19;343838;28;971;-74
2022/07/07 00:30:26;;;;;;;517.03;470.83;;;;;;;22.93;62.84;99372.59;342508;28;1006;-74
2022/07/07 00:30:37;;;;;;;516.47;470.25;;;;;;;22.95;62.79;99373.28;341073;29;1232;-74
2022/07/07 00:30:47;;;;;;;507.53;461.50;;;;;;;22.95;62.69;99370.59;341582;28;1813;-74
2022/07/07 00:30:57;;;;;;;503.55;457.60;;;;;;;22.97;62.78;99365.94;345146;28;989;-74
2022/07/07 00:31:08;;;;;;;500.60;454.77;;;;;;;22.99;62.92;99371.97;343856;28;958;-74
2022/07/07 00:31:18;;;;;;;502.75;456.95;;;;;;;23.00;63.03;99368.31;342423;28;1378;-74
2022/07/07 00:31:29;;;;;;;506.90;461.10;;;;;;;23.00;62.93;99369.16;345104;28;1371;-74
2022/07/07 00:31:39;;;;;;;506.63;460.77;;;;;;;23.01;62.77;99361.97;343691;28;1359;-74
2022/07/07 00:31:49;;;;;;;511.53;465.33;;;;;;;23.04;62.68;99361.69;343574;28;1838;-74
2022/07/07 00:32:00;;;;;;;505.47;459.37;;;;;;;23.03;63.22;99360.84;343777;28;956;-74
2022/07/07 00:32:11;;;;;;;507.88;461.77;;;;;;;23.05;63.05;99366.03;342412;28;1535;-74
2022/07/07 00:32:21;;;;;;;500.45;454.75;;;;;;;23.06;62.86;99360.56;341147;29;893;-74
2022/07/07 00:32:31;;;;;;;496.57;450.90;;;;;;;23.05;62.95;99363.38;343628;28;1827;-74
2022/07/07 00:32:42;;;;;;;485.23;439.87;;;;;;;23.03;63.00;99376.03;343007;28;2826;-75
2022/07/07 00:32:52;;;;;;;483.23;437.92;;;;;;;23.00;62.90;99370.97;341364;28;4766;-74
2022/07/07 00:33:03;;;;;;;485.87;440.57;;;;;;;22.98;62.98;99368.44;342196;28;2503;-74
2022/07/07 00:33:14;;;;;;;499.95;454.05;;;;;;;22.99;62.73;99369.28;343201;28;2045;-74
2022/07/07 00:33:25;;;;;;;503.73;457.73;;;;;;;22.99;62.97;99369.28;343743;28;3063;-74
2022/07/07 00:33:35;;;;;;;502.20;456.25;;;;;;;22.98;62.77;99367.63;342308;28;1228;-74
2022/07/07 00:33:45;;;;;;;494.73;449.07;;;;;;;23.02;62.86;99366.34;345104;28;1289;-74
2022/07/07 00:33:56;;;;;;;487.77;442.10;;;;;;;23.04;62.84;99375.03;344411;28;1670;-74
2022/07/07 00:34:06;;;;;;;485.73;440.07;;;;;;;23.04;62.96;99365.19;341223;29;786;-74
2022/07/07 00:34:17;;;;;;;488.20;442.50;;;;;;;23.04;62.65;99359.84;342994;28;1549;-74
2022/07/07 00:34:27;;;;;;;486.20;440.83;;;;;;;23.06;63.17;99365.03;341349;28;1267;-74
2022/07/07 00:34:37;;;;;;;481.20;436.10;;;;;;;23.06;63.01;99373.91;342382;28;1212;-74
2022/07/07 00:34:48;;;;;;;478.90;433.95;;;;;;;23.06;63.05;99368.56;343856;28;928;-74
2022/07/07 00:34:58;;;;;;;489.60;444.10;;;;;;;23.04;62.99;99367.88;342328;28;1279;-75
2022/07/07 00:35:09;;;;;;;493.98;448.42;;;;;;;23.05;62.86;99363.38;341126;29;842;-75
2022/07/07 00:35:19;;;;;;;500.30;454.53;;;;;;;23.04;63.19;99367.03;341034;29;1250;-74
2022/07/07 00:35:30;;;;;;;497.17;451.58;;;;;;;23.05;62.61;99379.38;341239;29;805;-74
2022/07/07 00:35:41;;;;;;;498.43;452.67;;;;;;;23.07;62.97;99377.41;343861;28;1216;-74
2022/07/07 00:35:51;;;;;;;493.13;447.45;;;;;;;23.07;62.84;99366.72;345103;28;842;-74
2022/07/07 00:36:01;;;;;;;493.77;447.97;;;;;;;23.06;63.23;99371.22;346438;28;1809;-75
2022/07/07 00:36:12;;;;;;;498.70;452.73;;;;;;;23.07;63.09;99367.56;343713;28;1478;-75
2022/07/07 00:36:22;;;;;;;502.35;456.58;;;;;;;23.07;63.04;99369.41;342381;28;2039;-75
2022/07/07 00:36:34;;;;;;;500.67;455.10;;;;;;;23.07;62.99;99366.72;341110;29;853;-75
2022/07/07 00:36:44;;;;;;;491.40;446.00;;;;;;;23.09;62.91;99372.75;340912;29;2127;-74
2022/07/07 00:36:54;;;;;;;487.73;442.17;;;;;;;23.08;63.39;99379.94;341185;28;936;-74
2022/07/07 00:37:05;;;;;;;490.77;444.93;;;;;;;23.09;63.40;99372.75;341233;29;877;-74
2022/07/07 00:37:15;;;;;;;492.17;446.48;;;;;;;23.10;63.11;99372.63;341449;28;882;-74
2022/07/07 00:37:26;;;;;;;495.83;449.87;;;;;;;23.10;63.46;99371.78;342409;28;810;-74
2022/07/07 00:37:36;;;;;;;490.17;444.37;;;;;;;23.09;63.18;99370.09;341138;29;1192;-74
2022/07/07 00:37:46;;;;;;;486.13;440.38;;;;;;;23.10;63.57;99377.97;341848;28;994;-74
2022/07/07 00:37:57;;;;;;;482.33;436.93;;;;;;;23.10;63.84;99374.44;345181;28;1346;-74
2022/07/07 00:38:07;;;;;;;484.50;439.15;;;;;;;23.10;63.53;99379.78;345257;28;947;-74
2022/07/07 00:38:18;;;;;;;487.87;442.43;;;;;;;23.10;63.73;99372.63;343900;28;834;-74
2022/07/07 00:38:28;;;;;;;489.63;444.15;;;;;;;23.09;63.54;99378.94;343910;28;897;-74
2022/07/07 00:38:40;;;;;;;488.57;442.90;;;;;;;23.08;63.49;99377.25;342666;28;794;-74
2022/07/07 00:38:50;;;;;;;489.70;444.00;;;;;;;23.08;63.77;99376.41;342708;28;924;-74
2022/07/07 00:39:01;;;;;;;496.13;449.53;;;;;;;23.08;63.29;99373.75;342388;28;1748;-74
2022/07/07 00:39:12;;;;;;;493.67;447.40;;;;;;;23.09;63.76;99372.75;342819;28;775;-74
2022/07/07 00:39:22;;;;;;;488.60;442.63;;;;;;;23.09;63.10;99380.78;343923;28;1080;-74
2022/07/07 00:39:33;;;;;;;483.90;438.70;;;;;;;23.08;63.35;99376.41;344007;28;786;-74
2022/07/07 00:39:43;;;;;;;485.13;439.85;;;;;;;23.08;63.20;99369.25;342697;28;934;-74
2022/07/07 00:39:53;;;;;;;487.93;442.53;;;;;;;23.10;63.15;99374.44;343797;28;1338;-74
2022/07/07 00:40:04;;;;;;;487.97;442.47;;;;;;;23.09;63.48;99370.09;343884;28;1240;-74
2022/07/07 00:40:15;;;;;;;483.00;437.48;;;;;;;23.09;63.40;99370.94;342394;28;1573;-74
2022/07/07 00:40:25;;;;;;;488.83;442.75;;;;;;;23.09;63.49;99375.44;343845;28;1331;-74
2022/07/07 00:40:36;;;;;;;492.55;445.60;;;;;;;23.10;63.48;99375.28;343940;28;930;-74
2022/07/07 00:40:53;;;;;;;501.17;453.97;;;;;;;23.10;63.64;99371.78;342758;28;868;-73
2022/07/07 00:41:03;;;;;;;494.77;448.05;;;;;;;23.10;63.69;99374.44;345027;28;1836;-73
2022/07/07 00:41:14;;;;;;;496.55;449.15;;;;;;;23.10;63.90;99379.78;346622;28;766;-73
2022/07/07 00:41:25;;;;;;;497.55;449.80;;;;;;;23.10;63.73;99371.78;345186;28;826;-74
2022/07/07 00:41:35;;;;;;;490.23;443.20;;;;;;;23.09;64.17;99370.09;343847;28;1184;-74
2022/07/07 00:41:46;;;;;;;486.67;440.50;;;;;;;23.09;63.79;99364.75;345298;28;1401;-74
2022/07/07 00:41:56;;;;;;;479.83;434.50;;;;;;;23.10;64.14;99377.13;343684;28;4803;-74
2022/07/07 00:42:06;;;;;;;486.37;440.90;;;;;;;23.10;64.15;99366.44;341657;28;2943;-74
2022/07/07 00:42:17;;;;;;;480.50;435.13;;;;;;;23.10;64.40;99371.78;342550;28;864;-73
2022/07/07 00:42:27;;;;;;;479.07;433.57;;;;;;;23.10;64.21;99371.78;342401;28;2771;-74
2022/07/07 00:42:38;;;;;;;480.08;434.50;;;;;;;23.09;64.70;99370.94;340115;29;1463;-74
2022/07/07 00:42:49;;;;;;;482.83;437.00;;;;;;;23.10;64.29;99366.44;341014;28;1482;-74
2022/07/07 00:42:59;;;;;;;486.07;440.10;;;;;;;23.08;64.54;99369.25;342414;28;869;-74
2022/07/07 00:43:09;;;;;;;489.33;442.73;;;;;;;23.10;64.63;99369.09;342290;28;1203;-74
2022/07/07 00:43:20;;;;;;;488.30;442.10;;;;;;;23.08;64.37;99371.09;343776;28;1221;-74
2022/07/07 00:43:40;;;;;;;489.33;443.35;;;;;;;23.08;64.45;99371.91;342573;28;1051;-74
2022/07/07 00:43:50;;;;;;;484.52;438.90;;;;;;;23.07;64.40;99364.91;342306;28;1366;-75
2022/07/07 00:44:01;;;;;;;479.95;434.42;;;;;;;23.08;64.97;99368.41;341092;29;1323;-75
2022/07/07 00:44:12;;;;;;;483.53;437.93;;;;;;;23.08;64.85;99371.09;340967;29;925;-75
2022/07/07 00:44:23;;;;;;;472.25;426.95;;;;;;;23.08;64.66;99371.09;343678;28;1710;-74
2022/07/07 00:44:33;;;;;;;469.90;424.63;;;;;;;23.08;64.10;99368.41;343865;28;925;-74
2022/07/07 00:44:44;;;;;;;471.45;426.27;;;;;;;23.06;64.96;99365.88;343593;28;1801;-74
2022/07/07 00:44:55;;;;;;;471.38;426.27;;;;;;;23.06;64.88;99365.88;343633;28;1146;-74
2022/07/07 00:45:06;;;;;;;477.67;432.37;;;;;;;23.07;64.90;99366.72;343783;28;920;-74
2022/07/07 00:45:16;;;;;;;481.10;435.63;;;;;;;23.07;64.81;99366.72;343569;28;1303;-74
2022/07/07 00:45:27;;;;;;;483.83;438.33;;;;;;;23.06;65.13;99371.22;341067;29;987;-74
2022/07/07 00:45:37;;;;;;;481.63;436.23;;;;;;;23.07;64.90;99366.72;341190;29;857;-74
2022/07/07 00:45:48;;;;;;;478.35;433.17;;;;;;;23.07;65.44;99372.06;342375;28;1348;-74
2022/07/07 00:45:58;;;;;;;479.17;434.15;;;;;;;23.06;65.32;99365.88;342312;28;1294;-74
2022/07/07 00:46:09;;;;;;;478.20;433.20;;;;;;;23.07;65.08;99366.72;340857;29;1564;-74
2022/07/07 00:46:19;;;;;;;481.17;435.95;;;;;;;23.07;65.42;99366.72;342387;28;1432;-74
2022/07/07 00:46:40;;;;;;;479.67;434.43;;;;;;;23.07;65.03;99369.41;341105;29;1193;-74
2022/07/07 00:46:51;;;;;;;480.70;435.33;;;;;;;23.07;65.37;99372.06;342030;28;2465;-74
2022/07/07 00:47:02;;;;;;;475.70;430.48;;;;;;;23.08;65.42;99368.41;342299;28;1807;-74
2022/07/07 00:47:12;;;;;;;476.10;430.95;;;;;;;23.08;65.31;99368.41;342345;28;1296;-74
2022/07/07 00:47:23;;;;;;;471.33;426.33;;;;;;;23.09;65.52;99364.75;343669;28;1375;-74
2022/07/07 00:47:33;;;;;;;472.33;427.20;;;;;;;23.07;65.41;99366.72;345110;28;1012;-74
2022/07/07 00:47:44;;;;;;;473.37;427.97;;;;;;;23.07;65.33;99367.56;342491;28;861;-74
2022/07/07 00:47:54;;;;;;;473.23;427.95;;;;;;;23.05;65.92;99366.88;343693;28;1836;-74
2022/07/07 00:48:05;;;;;;;474.47;429.23;;;;;;;23.07;65.59;99366.72;343728;28;1387;-74
2022/07/07 00:48:17;;;;;;;467.88;422.90;;;;;;;23.05;65.73;99364.22;343650;28;2057;-74
2022/07/07 00:48:27;;;;;;;469.67;424.58;;;;;;;23.04;65.15;99367.03;342400;28;1104;-74
2022/07/07 00:48:38;;;;;;;470.17;425.17;;;;;;;23.01;64.98;99360.16;342706;28;1281;-74
2022/07/07 00:48:49;;;;;;;471.88;426.90;;;;;;;23.03;65.05;99370.69;345125;28;922;-74
2022/07/07 00:48:59;;;;;;;474.13;429.20;;;;;;;23.03;64.92;99370.69;346361;28;1785;-74